San Antonio, Valles Caldera, New Mexico Weather observations

Data are for 10 minute period ending at time listed.
 Day   Time   Solar   Ave.   Ave.  Ave.  Vector  Max.   Baro.   Total    
  of    of     Rad.   Air    Rel.  Wind   Wind   Wind  Press.  Precip.   
Year   Day            Temp.  Hum.  Speed  Dir.   Gust                    
2014   (MST)  Kw/m2    F      %     mph   deg.    mph    mb.     in.     
-------------------------------------------------------------------------
 264    4:20   0.00   54.1    82    7.3   116    13.1   397.9    0.00 
 264    4:30   0.00   54.6    80    7.2   108    15.5   397.6    0.00 
 264    4:40   0.00   54.7    80    7.9   113    13.7   397.6    0.00 
 264    4:50   0.00   53.9    81    6.9   124    16.1   397.6    0.00 
 264    5:00   0.00   52.9    82    7.1   125    11.3   397.6    0.00 
 264    5:10   0.00   53.3    82    5.7   107    11.3   397.6    0.00 
 264    5:20   0.00   53.7    81    4.9   108     8.4   397.6    0.00 
 264    5:30   0.00   53.7    81    4.2   105    11.3   397.6    0.00 
 264    5:40   0.00   53.8    79    5.9   114    10.8   397.2    0.00 
 264    5:50   0.00   53.3    79    6.0   128    10.8   397.2    0.00 
 264    6:00   0.00   53.4    79    5.7   136    11.3   397.6    0.00 
 264    6:10   0.01   53.1    78    3.7   136     7.8   397.2    0.00 
 264    6:20   0.01   53.1    78    3.9   168     9.6   397.2    0.00 
 264    6:30   0.01   51.1    82    4.2   153     9.0   397.2    0.00 
 264    6:40   0.02   51.7    81    3.2   130     6.6   397.6    0.00 
 264    6:50   0.02   53.0    78    4.1   134     7.8   397.2    0.00 
 264    7:00   0.12   54.5    76    5.6   136    10.8   397.2    0.00 
 264    7:10   0.19   57.3    71    6.9   133    16.1   397.6    0.00 
 264    7:20   0.23   58.1    70    8.5   134    13.7   397.6    0.00 
 264    7:30   0.26   58.5    70    9.0   125    14.3   397.6    0.00 
 264    7:40   0.30   59.0    69   10.2   132    15.5   397.9    0.00 
 264    7:50   0.33   59.8    67    8.4   135    16.7   397.9    0.00 
 264    8:00   0.36   60.7    65    9.2   142    16.7   397.9    0.00 
 264    8:10   0.40   61.1    63    9.9   140    16.1   397.9    0.00 
 264    8:20   0.43   61.4    62   10.8   130    17.9   398.2    0.00 
 264    8:30   0.47   61.7    60   10.9   123    19.7   398.2    0.00 
 264    8:40   0.50   62.3    59   11.3   134    21.5   398.2    0.00 
 264    8:50   0.53   63.3    57    9.8   144    17.3   398.6    0.00 
 264    9:00   0.57   63.4    55   12.8   145    22.7   398.6    0.00 
 264    9:10   0.60   64.0    54   11.8   146    20.3   398.6    0.00 
 264    9:20   0.63   64.1    52   12.9   137    21.5   398.6    0.00 
 264    9:30   0.64   63.9    52   11.8   137    20.3   398.6    0.00 
 264    9:40   0.66   64.9    50   11.8   145    22.7   398.6    0.00 
 264    9:50   0.69   64.8    50   12.5   141    23.3   398.6    0.00 
 264   10:00   0.72   65.0    49   13.0   145    25.0   398.9    0.00 
 264   10:10   0.75   65.4    49   13.2   147    20.3   398.9    0.00 
 264   10:20   0.76   64.9    48   14.0   143    23.3   398.9    0.00 
 264   10:30   0.70   64.0    51   13.0   139    23.3   398.9    0.00 
 264   10:40   0.68   64.4    54   12.2   138    22.1   398.9    0.00 
 264   10:50   0.51   63.8    53   12.5   127    23.9   398.9    0.00 
 264   11:00   0.86   64.2    53   12.4   136    23.3   398.9    0.00 
 264   11:10   0.76   65.3    50   13.0   149    20.9   398.9    0.00 
 264   11:20   0.71   65.3    49   13.6   152    23.9   398.9    0.00 
 264   11:30   0.52   65.2    49   12.2   152    19.7   398.6    0.00 
 264   11:40   0.88   65.7    49   14.0   153    24.5   398.9    0.00 
 264   11:50   0.37   65.2    50   10.8   145    17.9   398.6    0.00 
 264   12:00   0.54   63.9    50   13.5   146    21.5   398.6    0.00 
 264   12:10   0.73   65.9    46   13.8   152    20.9   398.9    0.00 
 264   12:20   0.80   66.1    45   11.8   147    18.5   398.6    0.00 
 264   12:30   0.57   67.1    44   12.5   149    20.3   398.6    0.00 
 264   12:40   0.44   64.7    46   12.0   131    21.5   398.2    0.00 
 264   12:50   0.70   65.6    43   13.7   122    20.9   398.6    0.00 
 264   13:00   0.28   64.8    46   11.8   123    18.5   398.2    0.00 
 264   13:10   0.67   65.6    44   10.4   126    16.7   398.6    0.00 
 264   13:20   0.84   68.0    41   12.2   143    19.7   398.9    0.00 
 264   13:30   0.81   68.7    40   11.9   146    20.9   398.9    0.00 
 264   13:40   0.76   68.5    41   11.6   154    18.5   398.9    0.00 
 264   13:50   0.79   69.4    40   12.7   157    20.9   399.3    0.00 
 264   14:00   0.68   69.8    40   10.1   162    19.7   399.3    0.00 
 264   14:10   0.56   68.5    41   10.8   162    17.9   398.9    0.00 
 264   14:20   0.24   67.8    42    8.8   161    14.3   398.9    0.00 
 264   14:30   0.25   65.4    45    8.8   156    13.1   398.6    0.00 
 264   14:40   0.61   68.8    39   11.4   150    16.7   398.9    0.00 
 264   14:50   0.18   66.7    41   10.6   149    16.1   398.6    0.00 
 264   15:00   0.50   67.3    42    8.4   157    12.5   398.6    0.00 
 264   15:10   0.24   67.3    41    8.2   150    11.3   398.6    0.00 
 264   15:20   0.28   65.9    45    9.1   138    16.7   398.6    0.00 
 264   15:30   0.34   67.0    44    9.9   147    16.7   398.6    0.00 
 264   15:40   0.22   66.0    46    9.2   142    16.7   398.6    0.00 
 264   15:50   0.35   66.3    46   10.1   132    17.3   398.6    0.00 
 264   16:00   0.38   66.6    45   10.9   137    18.5   398.6    0.00 
 264   16:10   0.46   68.1    43    9.0   145    13.7   398.6    0.00 
 264   16:20   0.23   67.4    44    9.2   156    14.3   398.6    0.00 
 264   16:30   0.28   67.1    43    9.8   164    17.3   398.6    0.00 
 264   16:40   0.09   64.9    45    8.6   154    15.5   398.2    0.00 
 264   16:50   0.07   63.5    47    7.3   150    13.7   398.2    0.00 
 264   17:00   0.06   62.7    48    7.3   150    10.8   397.9    0.00 
 264   17:10   0.05   62.1    49    5.9   146    10.2   397.9    0.00 
 264   17:20   0.04   61.9    49    6.5   150    11.3   397.9    0.00 
 264   17:30   0.03   61.5    50    5.8   140     9.6   397.6    0.00 
 264   17:40   0.01   61.2    51    4.8   136     9.0   397.6    0.00 
 264   17:50   0.01   61.0    52    4.4   123     8.4   397.6    0.00 
 264   18:00   0.00   60.9    53    4.4   128     8.4   397.6    0.00 
 264   18:10   0.00   60.5    55    5.7   134     9.0   397.6    0.00 
 264   18:20   0.00   60.3    58    5.7   151    10.2   397.6    0.00 
 264   18:30   0.00   60.2    62    9.3   149    16.7   397.6    0.00 
 264   18:40   0.00   59.9    64    8.0   138    13.7   397.6    0.00 
 264   18:50   0.00   59.6    66    6.3   135    10.8   397.9    0.00 
 264   19:00   0.00   59.3    67    8.5   129    13.7   397.6    0.00 
 264   19:10   0.00   59.1    68    8.5   129    12.5   397.9    0.00 
 264   19:20   0.00   58.6    69    6.8   133    13.7   397.6    0.00 
 264   19:30   0.00   58.4    70    7.7   124    13.1   397.9    0.00 
 264   19:40   0.00   58.3    71    6.6   117    11.9   397.6    0.00 
 264   19:50   0.00   58.3    71    5.5   107    10.8   397.6    0.00 
 264   20:00   0.00   58.1    72    5.7   101     9.0   397.9    0.00 
 264   20:10   0.00   57.8    73    6.8   128    11.9   397.9    0.00 
 264   20:20   0.00   57.5    75    7.9   126    14.9   397.9    0.00 
 264   20:30   0.00   57.2    75    9.9   125    16.1   397.9    0.00 
 264   20:40   0.00   57.1    75    8.8   122    14.3   397.6    0.00 
 264   20:50   0.00   56.8    76    7.7   120    14.3   397.9    0.00 
 264   21:00   0.00   56.7    76    9.3   122    14.9   397.6    0.00 
 264   21:10   0.00   56.4    78    9.7   120    16.7   397.9    0.00 
 264   21:20   0.00   55.9    79    7.9   111    16.1   397.6    0.00 
 264   21:30   0.00   55.8    79    7.9   113    16.7   397.9    0.00 
 264   21:40   0.00   55.9    78    8.9   121    15.5   397.6    0.00 
 264   21:50   0.00   55.9    78    9.2   117    17.9   397.6    0.00 
 264   22:00   0.00   55.9    77    9.0   108    14.3   397.6    0.00 
 264   22:10   0.00   55.8    77    8.5   116    13.7   397.6    0.00 
 264   22:20   0.00   55.6    77    9.0   111    16.7   397.6    0.00 
 264   22:30   0.00   55.5    77   10.0   118    17.9   397.6    0.00 
 264   22:40   0.00   55.2    77    8.0   115    16.1   397.6    0.00 
 264   22:50   0.00   55.0    77    9.8   117    19.1   397.6    0.00 
 264   23:00   0.00   54.9    78    9.4   120    17.3   397.6    0.00 
 264   23:10   0.00   55.0    77    9.2   116    16.7   397.6    0.00 
 264   23:20   0.00   55.1    78   10.7   121    17.9   397.6    0.00 
 264   23:30   0.00   55.1    78   10.6   125    19.1   397.6    0.00 
 264   23:40   0.00   54.9    79   10.1   123    15.5   397.6    0.00 
 264   23:50   0.00   54.8    80   10.1   124    16.7   397.6    0.00 
 265    0:00   0.00   54.6    80   10.8   123    16.7   397.6    0.00 
 265    0:10   0.00   54.4    80    8.3   121    17.3   397.6    0.00 
 265    0:20   0.00   54.3    79    8.8   122    17.3   397.6    0.00 
 265    0:30   0.00   54.4    79    9.8   119    16.7   397.6    0.00 
 265    0:40   0.00   54.2    79   10.4   122    17.3   397.6    0.00 
 265    0:50   0.00   53.8    80    9.2   115    16.1   397.6    0.00 
 265    1:00   0.00   53.8    80    8.2   111    15.5   397.6    0.00 
 265    1:10   0.00   53.7    80    8.9   116    17.3   397.6    0.00 
 265    1:20   0.00   53.7    80    8.5   119    16.1   397.6    0.00 
 265    1:30   0.00   53.7    79    8.4   116    16.1   397.6    0.00 
 265    1:40   0.00   53.7    80    8.2   123    13.7   397.6    0.00 
 265    1:50   0.00   53.7    80    9.5   123    16.1   397.6    0.00 
 265    2:00   0.00   53.7    81    8.0   114    13.7   397.6    0.00 
 265    2:10   0.00   53.7    81    7.9   119    14.9   397.6    0.00 
 265    2:20   0.00   53.6    82    8.8   122    14.3   397.6    0.00 
 265    2:30   0.00   53.5    82    8.9   130    16.1   397.6    0.00 
 265    2:40   0.00   53.5    80    8.1   110    14.9   397.6    0.00 
 265    2:50   0.00   53.5    79    6.9   120    11.9   397.6    0.00 
 265    3:00   0.00   53.4    78    7.7   123    14.3   397.6    0.00 
 265    3:10   0.00   53.3    79    7.1   116    12.5   397.6    0.00 
 265    3:20   0.00   53.2    79    7.6   120    14.9   397.6    0.00 
 265    3:30   0.00   53.0    80    7.1   128    10.8   397.6    0.00 
 265    3:40   0.00   53.1    80    8.6   126    13.7   397.6    0.00 
 265    3:50   0.00   53.3    80    6.7   105    11.3   397.6    0.00 
 265    4:00   0.00   53.5    80    8.0   105    12.5   397.6    0.00 
 265    4:10   0.00   53.3    81    7.7   109    14.3   397.6    0.00 

Return to San Antonio, Valles Caldera graphs page.


Western Regional Climate Center,wrcc@dri.edu